.
WxDataArchive / Data Records for 2008-07-14
2008-07-13 July 2008 2008-07-15

Data Records for Monday, 14 July 2008

Time	Temp	Chill	HIndex	Humid	Dewpt	 Wind 	HiWind	WindDir	Rain 	Barom 
-----	----	-----	------	-----	-----	------	------	-------	-----	----- 
00:00	67.1	67.1	67.1	61	53.2	0	1	270	0.00	29.798 
00:05	66.9	66.9	66.9	62	53.4	0	1	270	0.00	29.798 
00:10	66.8	66.8	66.8	62	53.4	0	1	270	0.00	29.797 
00:15	66.6	66.6	66.6	62	53.2	0	1	270	0.00	29.798 
00:20	66.4	66.4	66.4	62	53.0	0	1	270	0.00	29.798 
00:25	66.3	66.3	66.3	62	52.9	0	1	270	0.00	29.798 
00:30	66.3	66.3	66.3	63	53.3	0	1	270	0.00	29.800 
00:35	66.3	66.3	66.3	63	53.3	0	1	270	0.00	29.800 
00:40	66.1	66.1	66.1	63	53.1	0	1	270	0.00	29.799 
00:45	66.1	66.1	66.1	64	53.6	0	1	270	0.00	29.800 
00:50	66.0	66.0	66.0	64	53.5	0	1	270	0.00	29.798 
00:55	65.8	65.8	65.8	64	53.3	0	1	270	0.00	29.799 
01:00	65.6	65.6	65.6	65	53.5	0	1	270	0.00	29.799 
01:05	65.6	65.6	65.6	65	53.5	0	1	270	0.00	29.799 
01:10	65.5	65.5	65.5	65	53.4	0	1	270	0.00	29.799 
01:15	65.5	65.5	65.5	65	53.4	0	1	270	0.00	29.797 
01:20	65.3	65.3	65.3	66	53.6	0	1	270	0.00	29.797 
01:25	65.2	65.2	65.2	66	53.5	0	1	270	0.00	29.797 
01:30	65.2	65.2	65.2	66	53.5	0	1	270	0.00	29.796 
01:35	65.0	65.0	65.0	67	53.8	0	1	270	0.00	29.796 
01:40	65.0	65.0	65.0	67	53.8	0	1	270	0.00	29.795 
01:45	64.8	64.8	64.8	67	53.6	0	2	270	0.00	29.795 
01:50	64.8	64.8	64.8	67	53.6	0	1	270	0.00	29.795 
01:55	64.7	64.7	64.7	68	53.9	0	1	270	0.00	29.795 
02:00	64.5	64.5	64.5	68	53.7	0	2	270	0.00	29.794 
02:05	64.5	64.5	64.5	69	54.1	0	2	270	0.00	29.795 
02:10	64.3	64.3	64.3	69	53.9	0	1	270	0.00	29.795 
02:15	64.3	64.3	64.3	69	53.9	0	1	270	0.00	29.794 
02:20	64.2	64.2	64.2	70	54.2	0	1	270	0.00	29.794 
02:25	64.2	64.2	64.2	70	54.2	0	1	270	0.00	29.794 
02:30	64.2	64.2	64.2	70	54.2	0	1	270	0.00	29.793 
02:35	64.0	64.0	64.0	70	54.0	0	1	270	0.00	29.794 
02:40	63.9	63.9	63.9	71	54.3	0	1	270	0.00	29.794 
02:45	63.9	63.9	63.9	71	54.3	0	1	270	0.00	29.795 
02:50	63.7	63.7	63.7	71	54.1	0	1	270	0.00	29.795 
02:55	63.5	63.5	63.5	72	54.3	0	1	270	0.00	29.795 
03:00	63.5	63.5	63.5	72	54.3	0	2	270	0.00	29.794 
03:05	63.4	63.4	63.4	73	54.6	0	1	270	0.00	29.795 
03:10	63.2	63.2	63.2	73	54.4	0	1	270	0.00	29.795 
03:15	63.2	63.2	63.2	73	54.4	0	2	270	0.00	29.794 
03:20	63.2	63.2	63.2	73	54.4	0	3	270	0.00	29.795 
03:25	63.1	63.1	63.1	74	54.7	0	1	270	0.00	29.796 
03:30	62.9	62.9	62.9	74	54.5	0	1	270	0.00	29.796 
03:35	62.7	62.7	62.7	75	54.7	0	1	270	0.00	29.796 
03:40	62.6	62.6	62.6	76	54.9	0	1	270	0.00	29.797 
03:45	62.6	62.6	62.6	76	54.9	0	1	270	0.00	29.797 
03:50	62.4	62.4	62.4	77	55.1	0	1	270	0.00	29.798 
03:55	62.3	62.3	62.3	77	55.0	0	1	270	0.00	29.798 
04:00	62.1	62.1	62.1	77	54.8	0	1	270	0.00	29.798 
04:05	62.0	62.0	62.0	78	55.1	0	1	270	0.00	29.798 
04:10	61.8	61.8	61.8	78	54.9	0	1	270	0.00	29.799 
04:15	61.8	61.8	61.8	79	55.2	0	1	270	0.00	29.799 
04:20	61.6	61.6	61.6	79	55.0	0	1	270	0.00	29.799 
04:25	61.6	61.6	61.6	80	55.4	0	1	270	0.00	29.800 
04:30	61.5	61.5	61.5	80	55.3	0	1	270	0.00	29.801 
04:35	61.5	61.5	61.5	80	55.3	0	1	270	0.00	29.803 
04:40	61.5	61.5	61.5	81	55.6	0	1	270	0.00	29.805 
04:45	61.5	61.5	61.5	81	55.6	0	1	270	0.00	29.805 
04:50	61.5	61.5	61.5	81	55.6	0	1	270	0.00	29.808 
04:55	61.6	61.6	61.6	80	55.4	0	1	270	0.00	29.807 
05:00	61.6	61.6	61.6	80	55.4	0	1	270	0.00	29.811 
05:05	61.6	61.6	61.6	80	55.4	0	1	270	0.00	29.811 
05:10	61.6	61.6	61.6	80	55.4	0	3	270	0.00	29.812 
05:15	61.6	61.6	61.6	80	55.4	0	2	270	0.00	29.813 
05:20	61.6	61.6	61.6	80	55.4	0	1	270	0.00	29.814 
05:25	61.5	61.5	61.5	81	55.6	0	1	270	0.00	29.814 
05:30	61.5	61.5	61.5	81	55.6	0	1	270	0.00	29.815 
05:35	61.3	61.3	61.3	81	55.4	0	1	270	0.00	29.815 
05:40	61.2	61.2	61.2	82	55.7	0	1	270	0.00	29.816 
05:45	61.2	61.2	61.2	82	55.7	0	1	270	0.00	29.818 
05:50	61.0	61.0	61.0	82	55.5	0	1	270	0.00	29.821 
05:55	61.2	61.2	61.2	83	56.0	0	1	270	0.00	29.825 
06:00	61.2	61.2	61.2	83	56.0	0	1	270	0.00	29.825 
06:05	61.3	61.3	61.3	83	56.1	0	1	270	0.00	29.828 
06:10	61.5	61.5	61.5	83	56.3	0	1	270	0.00	29.828 
06:15	61.6	61.6	61.6	83	56.4	0	1	270	0.00	29.827 
06:20	61.8	61.8	61.8	82	56.2	0	1	270	0.00	29.827 
06:25	62.1	62.1	62.1	81	56.2	0	1	270	0.00	29.829 
06:30	62.6	62.6	62.6	81	56.7	0	1	270	0.00	29.829 
06:35	62.9	62.9	62.9	80	56.6	1	2	270	0.00	29.829 
06:40	63.4	63.4	63.4	79	56.8	0	1	270	0.00	29.830 
06:45	63.9	63.9	63.9	78	56.9	1	2	270	0.00	29.831 
06:50	64.0	64.0	64.0	77	56.6	0	2	270	0.00	29.832 
06:55	64.5	64.5	64.5	77	57.1	0	2	270	0.00	29.835 
07:00	64.7	64.7	64.7	76	57.0	1	3	270	0.00	29.836 
07:05	65.0	65.0	65.0	75	56.9	1	3	270	0.00	29.839 
07:10	65.5	65.5	65.5	75	57.4	1	3	270	0.00	29.842 
07:15	65.8	65.8	65.8	73	56.9	1	3	270	0.00	29.844 
07:20	66.1	66.1	66.1	73	57.2	1	3	270	0.00	29.844 
07:25	66.4	66.4	66.4	73	57.5	0	2	270	0.00	29.845 
07:30	66.8	66.8	66.8	71	57.1	1	2	270	0.00	29.844 
07:35	67.3	67.3	67.3	71	57.6	1	3	315	0.00	29.846 
07:40	67.6	67.6	67.6	70	57.5	1	2	315	0.00	29.846 
07:45	68.1	68.1	68.1	70	57.9	1	2	315	0.00	29.847 
07:50	68.4	68.4	68.4	68	57.4	1	4	248	0.00	29.849 
07:55	68.8	68.8	68.8	68	57.8	1	2	248	0.00	29.847 
08:00	69.3	69.3	69.3	68	58.3	1	2	248	0.00	29.848 
08:05	69.4	69.4	69.4	65	57.1	0	2	248	0.00	29.852 
08:10	69.6	69.6	69.6	65	57.3	1	4	315	0.00	29.854 
08:15	69.9	69.9	69.9	65	57.6	1	3	315	0.00	29.854 
08:20	70.3	70.3	70.3	64	57.5	1	2	292	0.00	29.856 
08:25	70.6	70.6	70.6	62	56.9	1	3	292	0.00	29.854 
08:30	70.9	70.9	70.9	63	57.7	1	2	292	0.00	29.854 
08:35	71.3	71.3	71.3	62	57.6	1	3	292	0.00	29.857 
08:40	71.5	71.5	71.5	61	57.3	1	2	270	0.00	29.857 
08:45	71.8	71.8	71.8	60	57.2	1	2	270	0.00	29.858 
08:50	72.1	72.1	72.1	59	57.0	1	2	270	0.00	29.858 
08:55	72.5	72.5	72.5	57	56.4	1	2	270	0.00	29.859 
09:00	73.0	73.0	73.0	59	57.8	1	2	270	0.00	29.857 
09:05	73.3	73.3	73.3	59	58.1	1	3	292	0.00	29.860 
09:10	73.3	73.3	73.3	58	57.6	2	3	292	0.00	29.860 
09:15	73.3	73.3	73.3	57	57.1	1	2	315	0.00	29.860 
09:20	73.7	73.7	73.7	57	57.5	1	3	315	0.00	29.860 
09:25	73.9	73.9	73.9	59	58.7	1	3	292	0.00	29.863 
09:30	74.2	74.2	74.2	58	58.5	1	3	292	0.00	29.861 
09:35	74.2	74.2	74.2	58	58.5	1	4	315	0.00	29.862 
09:40	74.6	74.6	74.6	58	58.8	1	3	292	0.00	29.862 
09:45	75.1	75.1	77.5	58	59.3	1	3	292	0.00	29.860 
09:50	75.3	75.3	77.6	58	59.5	1	3	292	0.00	29.859 
09:55	75.4	75.4	77.7	58	59.6	1	4	270	0.00	29.860 
10:00	75.6	75.6	77.8	57	59.3	1	4	248	0.00	29.860 
10:05	75.8	75.8	77.9	57	59.5	1	4	292	0.00	29.861 
10:10	76.0	76.0	78.1	53	57.6	1	3	292	0.00	29.864 
10:15	76.3	76.3	78.2	51	56.8	1	3	292	0.00	29.864 
10:20	76.5	76.5	78.4	52	57.5	1	3	315	0.00	29.866 
10:25	76.7	76.7	78.5	53	58.3	2	5	292	0.00	29.865 
10:30	76.8	76.8	78.4	47	55.0	2	4	248	0.00	29.868 
10:35	77.0	77.0	78.6	49	56.4	2	4	270	0.00	29.868 
10:40	77.4	77.4	78.7	46	55.0	1	4	270	0.00	29.869 
10:45	77.6	77.6	78.9	48	56.3	1	3	315	0.00	29.868 
10:50	78.1	78.1	79.1	46	55.6	1	3	292	0.00	29.869 
10:55	78.3	78.3	79.2	46	55.8	2	5	292	0.00	29.869 
11:00	77.9	77.9	79.0	46	55.4	1	3	292	0.00	29.869 
11:05	77.9	77.9	78.9	44	54.2	3	6	270	0.00	29.871 
11:10	78.1	78.1	79.0	44	54.4	2	4	270	0.00	29.872 
11:15	77.6	77.6	78.5	40	51.3	2	5	292	0.00	29.874 
11:20	77.7	77.7	78.8	45	54.6	2	4	270	0.00	29.873 
11:25	77.9	77.9	78.7	41	52.3	2	5	270	0.00	29.873 
11:30	78.3	78.3	78.8	39	51.3	3	6	315	0.00	29.874 
11:35	78.3	78.3	78.9	40	52.0	3	7	315	0.00	29.875 
11:40	78.3	78.3	79.0	42	53.3	2	5	292	0.00	29.875 
11:45	78.3	78.3	78.8	39	51.3	3	7	315	0.00	29.876 
11:50	78.5	78.5	79.1	42	53.5	2	5	270	0.00	29.873 
11:55	79.2	79.2	79.5	41	53.4	2	5	270	0.00	29.872 
12:00	78.6	78.6	79.1	41	52.9	2	4	270	0.00	29.873 
12:05	78.6	78.6	79.2	42	53.6	3	7	292	0.00	29.878 
12:10	78.8	78.8	79.2	40	52.4	3	9	292	0.00	29.876 
12:15	79.0	79.0	79.5	43	54.6	2	6	292	0.00	29.875 
12:20	78.8	78.8	79.2	40	52.4	3	6	315	0.00	29.874 
12:25	78.5	78.5	79.2	43	54.1	2	6	315	0.00	29.874 
12:30	78.8	78.8	79.3	42	53.7	2	4	315	0.00	29.875 
12:35	79.0	79.0	79.2	39	51.9	3	5	292	0.00	29.876 
12:40	78.6	78.6	79.1	41	52.9	2	5	292	0.00	29.876 
12:45	79.2	79.2	79.5	41	53.4	2	7	315	0.00	29.875 
12:50	79.0	79.0	79.2	39	51.9	2	5	315	0.00	29.876 
12:55	79.4	79.4	79.5	39	52.3	3	6	270	0.00	29.877 
13:00	79.0	79.0	79.3	40	52.6	2	5	315	0.00	29.875 
13:05	79.0	79.0	79.3	40	52.6	3	6	315	0.00	29.876 
13:10	78.6	78.6	79.0	40	52.2	2	6	315	0.00	29.875 
13:15	78.3	78.3	79.0	42	53.3	3	5	315	0.00	29.877 
13:20	78.8	78.8	79.0	38	51.0	3	7	315	0.00	29.875 
13:25	79.2	79.2	79.3	38	51.4	3	6	292	0.00	29.874 
13:30	79.6	79.6	79.4	37	51.0	2	7	292	0.00	29.874 
13:35	79.9	79.9	79.9	40	53.4	2	5	270	0.00	29.874 
13:40	79.8	79.8	79.7	39	52.6	3	5	315	0.00	29.875 
13:45	79.4	79.4	79.3	37	50.8	3	6	315	0.00	29.874 
13:50	79.2	79.2	79.1	36	49.9	3	9	292	0.00	29.874 
13:55	78.6	78.6	79.0	39	51.5	2	5	315	0.00	29.875 
14:00	79.6	79.6	79.5	38	51.7	1	3	270	0.00	29.873 
14:05	78.8	78.8	79.1	39	51.7	2	6	292	0.00	29.877 
14:10	79.4	79.4	79.4	38	51.6	2	5	315	0.00	29.877 
14:15	79.2	79.2	79.4	40	52.8	2	5	292	0.00	29.877 
14:20	79.0	79.0	79.4	41	53.3	1	4	338	0.00	29.876 
14:25	79.9	79.9	79.7	38	52.0	1	4	270	0.00	29.875 
14:30	79.8	79.8	79.6	38	51.9	2	5	315	0.00	29.877 
14:35	79.9	79.9	79.9	40	53.4	2	4	292	0.00	29.875 
14:40	80.1	80.1	79.9	39	52.9	2	6	270	0.00	29.876 
14:45	80.1	80.1	79.7	36	50.7	2	5	292	0.00	29.875 
14:50	79.6	79.6	79.4	37	51.0	2	4	315	0.00	29.876 
14:55	79.4	79.4	79.5	40	52.9	2	4	315	0.00	29.879 
15:00	79.9	79.9	79.6	37	51.3	2	4	315	0.00	29.875 
15:05	80.5	80.5	80.2	39	53.2	2	4	315	0.00	29.875 
15:10	81.1	81.1	80.4	36	51.6	2	5	270	0.00	29.874 
15:15	80.5	80.5	79.9	35	50.3	2	5	270	0.00	29.874 
15:20	80.5	80.5	80.0	37	51.8	1	4	270	0.00	29.874 
15:25	80.7	80.7	80.2	37	52.0	2	4	270	0.00	29.875 
15:30	80.5	80.5	79.9	35	50.3	1	2	292	0.00	29.876 
15:35	80.1	80.1	79.6	35	50.0	2	6	270	0.00	29.878 
15:40	80.1	80.1	79.8	38	52.2	2	5	270	0.00	29.876 
15:45	80.5	80.5	80.2	39	53.2	1	3	315	0.00	29.876 
15:50	80.3	80.3	80.0	38	52.4	2	6	315	0.00	29.876 
15:55	80.3	80.3	79.8	36	50.9	1	3	292	0.00	29.876 
16:00	80.7	80.7	80.1	36	51.2	1	3	270	0.00	29.875 
16:05	79.9	79.9	79.4	34	49.0	2	6	315	0.00	29.878 
16:10	79.6	79.6	79.4	37	51.0	2	4	315	0.00	29.878 
16:15	79.4	79.4	79.2	35	49.3	2	5	315	0.00	29.881 
16:20	79.8	79.8	79.5	36	50.4	1	3	270	0.00	29.879 
16:25	79.9	79.9	79.7	38	52.0	1	4	22	0.00	29.880 
16:30	79.9	79.9	79.6	37	51.3	1	4	315	0.00	29.881 
16:35	79.0	79.0	79.1	37	50.5	2	5	248	0.00	29.883 
16:40	79.0	79.0	79.0	36	49.7	1	6	315	0.00	29.883 
16:45	79.4	79.4	79.2	35	49.3	2	6	292	0.00	29.884 
16:50	79.8	79.8	79.5	36	50.4	2	4	315	0.00	29.882 
16:55	79.4	79.4	79.3	37	50.8	1	3	338	0.00	29.880 
17:00	79.4	79.4	79.3	37	50.8	1	5	270	0.00	29.879 
17:05	79.6	79.6	79.4	37	51.0	1	3	292	0.00	29.880 
17:10	79.6	79.6	79.4	36	50.3	1	4	292	0.00	29.882 
17:15	79.4	79.4	79.2	35	49.3	1	3	338	0.00	29.883 
17:20	79.6	79.6	79.4	37	51.0	1	2	292	0.00	29.884 
17:25	79.6	79.6	79.4	37	51.0	0	1	292	0.00	29.886 
17:30	79.4	79.4	79.3	37	50.8	1	3	270	0.00	29.886 
17:35	79.2	79.2	79.1	35	49.2	2	5	270	0.00	29.888 
17:40	79.2	79.2	79.1	35	49.2	1	3	315	0.00	29.888 
17:45	79.0	79.0	78.9	34	48.2	1	4	292	0.00	29.888 
17:50	79.0	79.0	79.0	35	49.0	1	2	292	0.00	29.888 
17:55	79.0	79.0	79.1	37	50.5	1	2	315	0.00	29.889 
18:00	78.8	78.8	78.9	36	49.6	1	3	270	0.00	29.891 
18:05	78.8	78.8	78.8	34	48.0	1	3	292	0.00	29.889 
18:10	78.6	78.6	78.6	33	47.1	2	4	292	0.00	29.890 
18:15	78.5	78.5	78.6	33	47.0	1	3	292	0.00	29.890 
18:20	78.5	78.5	78.7	35	48.5	0	1	315	0.00	29.891 
18:25	78.3	78.3	78.5	33	46.8	1	4	315	0.00	29.893 
18:30	78.1	78.1	78.5	35	48.2	1	2	315	0.00	29.892 
18:35	78.1	78.1	78.5	35	48.2	1	2	315	0.00	29.893 
18:40	77.9	77.9	78.4	35	48.0	1	3	315	0.00	29.893 
18:45	77.9	77.9	78.4	35	48.0	1	3	270	0.00	29.893 
18:50	77.9	77.9	78.4	35	48.0	0	2	315	0.00	29.895 
18:55	77.7	77.7	78.3	36	48.6	0	1	315	0.00	29.895 
19:00	77.6	77.6	78.4	38	50.0	0	1	315	0.00	29.896 
19:05	77.4	77.4	78.3	38	49.8	0	1	315	0.00	29.893 
19:10	77.2	77.2	78.2	37	48.9	0	1	315	0.00	29.895 
19:15	76.8	76.8	78.1	39	49.9	0	1	315	0.00	29.897 
19:20	76.5	76.5	78.0	40	50.4	0	0	---	0.00	29.898 
19:25	76.1	76.1	77.9	41	50.7	0	1	315	0.00	29.901 
19:30	75.8	75.8	77.8	43	51.7	0	0	---	0.00	29.902 
19:35	75.3	75.3	77.7	44	51.9	0	0	---	0.00	29.904 
19:40	74.9	74.9	74.9	45	52.1	0	0	---	0.00	29.904 
19:45	74.4	74.4	74.4	46	52.3	0	0	---	0.00	29.905 
19:50	74.0	74.0	74.0	46	51.9	0	0	---	0.00	29.907 
19:55	73.5	73.5	73.5	47	52.0	0	0	---	0.00	29.907 
20:00	73.2	73.2	73.2	47	51.7	0	0	---	0.00	29.908 
20:05	72.7	72.7	72.7	50	53.0	0	0	---	0.00	29.904 
20:10	72.1	72.1	72.1	50	52.4	0	0	---	0.00	29.907 
20:15	71.5	71.5	71.5	51	52.4	0	0	---	0.00	29.907 
20:20	70.9	70.9	70.9	53	52.9	0	0	---	0.00	29.907 
20:25	70.4	70.4	70.4	55	53.4	0	0	---	0.00	29.909 
20:30	69.9	69.9	69.9	56	53.5	0	0	---	0.00	29.912 
20:35	69.4	69.4	69.4	57	53.5	0	0	---	0.00	29.914 
20:40	68.9	68.9	68.9	60	54.4	0	0	---	0.00	29.915 
20:45	68.4	68.4	68.4	60	54.0	0	0	---	0.00	29.918 
20:50	68.1	68.1	68.1	61	54.1	0	0	---	0.00	29.922 
20:55	67.6	67.6	67.6	62	54.1	0	0	---	0.00	29.922 
21:00	67.3	67.3	67.3	64	54.7	0	0	---	0.00	29.923 
21:05	66.9	66.9	66.9	64	54.3	0	0	---	0.00	29.922 
21:10	66.4	66.4	66.4	65	54.3	0	0	---	0.00	29.923 
21:15	66.1	66.1	66.1	66	54.4	0	0	---	0.00	29.925 
21:20	65.8	65.8	65.8	67	54.5	0	0	---	0.00	29.927 
21:25	65.5	65.5	65.5	68	54.7	0	0	---	0.00	29.929 
21:30	65.2	65.2	65.2	69	54.8	0	0	---	0.00	29.934 
21:35	65.0	65.0	65.0	69	54.6	0	0	---	0.00	29.937 
21:40	64.7	64.7	64.7	70	54.7	0	0	---	0.00	29.938 
21:45	64.5	64.5	64.5	71	54.9	0	0	---	0.00	29.939 
21:50	64.2	64.2	64.2	72	55.0	0	0	---	0.00	29.940 
21:55	64.0	64.0	64.0	73	55.2	0	0	---	0.00	29.942 
22:00	63.9	63.9	63.9	73	55.1	0	0	---	0.00	29.942 
22:05	63.5	63.5	63.5	73	54.7	0	0	---	0.00	29.943 
22:10	63.4	63.4	63.4	73	54.6	0	0	---	0.00	29.944 
22:15	63.2	63.2	63.2	73	54.4	0	0	---	0.00	29.947 
22:20	63.1	63.1	63.1	73	54.3	0	0	---	0.00	29.949 
22:25	62.7	62.7	62.7	73	53.9	0	0	---	0.00	29.950 
22:30	62.6	62.6	62.6	73	53.8	0	0	---	0.00	29.952 
22:35	62.4	62.4	62.4	74	54.0	0	0	---	0.00	29.951 
22:40	62.3	62.3	62.3	75	54.3	0	0	---	0.00	29.952 
22:45	62.1	62.1	62.1	76	54.4	0	0	---	0.00	29.951 
22:50	62.1	62.1	62.1	77	54.8	0	0	---	0.00	29.953 
22:55	62.0	62.0	62.0	78	55.1	0	0	---	0.00	29.954 
23:00	61.8	61.8	61.8	78	54.9	0	0	---	0.00	29.953 
23:05	61.8	61.8	61.8	79	55.2	0	0	---	0.00	29.954 
23:10	61.8	61.8	61.8	80	55.6	0	0	---	0.00	29.954 
23:15	61.6	61.6	61.6	80	55.4	0	0	---	0.00	29.954 
23:20	61.6	61.6	61.6	81	55.7	0	0	---	0.00	29.953 
23:25	61.5	61.5	61.5	81	55.6	0	0	---	0.00	29.953 
23:30	61.3	61.3	61.3	82	55.8	0	0	---	0.00	29.953 
23:35	61.3	61.3	61.3	82	55.8	0	0	---	0.00	29.953 
23:40	61.2	61.2	61.2	82	55.7	0	0	---	0.00	29.954 
23:45	61.0	61.0	61.0	83	55.8	0	0	---	0.00	29.954 
23:50	60.9	60.9	60.9	83	55.7	0	0	---	0.00	29.955 
23:55	60.7	60.7	60.7	83	55.5	0	0	---	0.00	29.955 

CoCoRaHS
IN-AL-39
A2 Web Hosting
Creative Commons License
GoDaddy
Look for:

loaded 2017-10-17 00:09:00 • last modified 2010-11-18 10:43:29
Privacy PolicyDisclaimer
• wx.awcolley.com is powered by PmWiki v.2002016 •
• all content (unless otherwise noted) © 2017 A W Colley